createdAt,value
2022-10-18T00:00:04.802Z,1029.26
2022-10-18T00:16:04.928Z,1029.19
2022-10-18T00:31:04.974Z,1029.13
2022-10-18T00:46:00.528Z,1028.99
2022-10-18T01:00:00.322Z,1028.86
2022-10-18T01:16:00.793Z,1028.75
2022-10-18T01:31:01.133Z,1028.72
2022-10-18T01:46:01.448Z,1028.59
2022-10-18T02:00:01.731Z,1028.48
2022-10-18T02:16:01.888Z,1028.48
2022-10-18T02:31:02.204Z,1028.45
2022-10-18T02:46:02.263Z,1028.38
2022-10-18T03:00:02.589Z,1028.35
2022-10-18T03:16:02.864Z,1028.31
2022-10-18T03:31:02.815Z,1028.42
2022-10-18T03:46:02.774Z,1028.52
2022-10-18T04:00:02.818Z,1028.59
2022-10-18T04:16:03.345Z,1028.62
2022-10-18T04:31:03.507Z,1028.59
2022-10-18T04:46:03.813Z,1028.55
2022-10-18T05:00:03.695Z,1028.45
2022-10-18T05:16:04.484Z,1028.25
2022-10-18T05:31:04.817Z,1028.18
2022-10-18T05:46:05.446Z,1028.18
2022-10-18T06:00:02.689Z,1028.25
2022-10-18T06:16:00.389Z,1028.21
2022-10-18T06:31:00.602Z,1028.14
2022-10-18T06:46:01.630Z,1028.28
2022-10-18T07:00:02.165Z,1028.42
2022-10-18T07:16:02.087Z,1028.42
2022-10-18T07:31:05.223Z,1028.35
2022-10-18T07:46:10.027Z,1028.28
2022-10-18T08:00:03.000Z,1028.11
2022-10-18T08:16:03.519Z,1027.98
2022-10-18T08:31:03.703Z,1027.7
2022-10-18T08:46:03.773Z,1027.6
2022-10-18T09:00:03.869Z,1027.43
2022-10-18T09:16:03.974Z,1027.26
2022-10-18T09:31:00.255Z,1027.1
2022-10-18T09:46:04.537Z,1026.86
2022-10-18T10:00:04.531Z,1026.79
2022-10-18T10:16:04.516Z,1026.59
2022-10-18T10:31:04.500Z,1026.35
2022-10-18T10:46:04.831Z,1026.05
2022-10-18T11:00:04.684Z,1025.74
2022-10-18T11:16:00.489Z,1025.47
2022-10-18T11:31:00.283Z,1025.2
2022-10-18T11:46:00.649Z,1025.06
2022-10-18T12:00:00.980Z,1024.93
2022-10-18T12:16:01.102Z,1024.62
2022-10-18T12:31:01.027Z,1024.35
2022-10-18T12:46:01.074Z,1024.12
2022-10-18T13:00:01.221Z,1023.84
2022-10-18T13:16:01.540Z,1023.61
2022-10-18T13:31:01.888Z,1023.57
2022-10-18T13:46:01.949Z,1023.57
2022-10-18T14:00:02.303Z,1023.44
2022-10-18T14:16:02.257Z,1023.37
2022-10-18T14:31:02.407Z,1023.2
2022-10-18T14:46:02.697Z,1023.23
2022-10-18T15:00:02.481Z,1023.17
2022-10-18T15:16:02.766Z,1023.13
2022-10-18T15:31:03.382Z,1023.23
2022-10-18T15:46:06.376Z,1023.27
2022-10-18T16:00:04.233Z,1023.27
2022-10-18T16:16:04.298Z,1023.44
2022-10-18T16:31:04.463Z,1023.64
2022-10-18T16:46:04.666Z,1023.81
2022-10-18T17:00:04.425Z,1024.01
2022-10-18T17:16:05.049Z,1024.12
2022-10-18T17:31:00.579Z,1024.25
2022-10-18T17:46:01.015Z,1024.39
2022-10-18T18:00:01.523Z,1024.49
2022-10-18T18:16:01.436Z,1024.45
2022-10-18T18:31:01.368Z,1024.45
2022-10-18T18:46:01.537Z,1024.35
2022-10-18T19:00:01.849Z,1024.39
2022-10-18T19:16:02.337Z,1024.42
2022-10-18T19:31:02.707Z,1024.49
2022-10-18T19:46:02.957Z,1024.45
2022-10-18T20:00:05.448Z,1024.56
2022-10-18T20:16:03.634Z,1024.56
2022-10-18T20:31:04.068Z,1024.66
2022-10-18T20:46:04.150Z,1024.79
2022-10-18T21:00:04.234Z,1024.69
2022-10-18T21:16:04.983Z,1024.72
2022-10-18T21:31:05.406Z,1024.76
2022-10-18T21:46:00.442Z,1024.66
2022-10-18T22:00:23.792Z,1024.52
2022-10-18T22:16:00.453Z,1024.49
2022-10-18T22:31:08.371Z,1024.42
2022-10-18T22:46:00.767Z,1024.28
2022-10-18T23:00:00.947Z,1024.42
2022-10-18T23:16:04.298Z,1024.52
2022-10-18T23:31:01.798Z,1024.32
2022-10-18T23:46:02.119Z,1024.32
